CheckWX is a tool to help pilots better visualize weather data.  It is not intended as a substitute for an official pre-flight weather briefing.

00:56:13 UTC

SBCR TAF
Corumbá International Airport
Corumbá, Brazil
TAF SBCR 261500Z 2618/2718 16007KT CAVOK TX35/2618Z TN22/2709Z TEMPO 2618/2620 9999 FEW035 BECMG 2621/2622 22005KT BECMG 2712/2714 16008KT 9999 FEW 035 RMK PDJ

Mar-26@
18:00 UTC

Mar-26 @ 18:00 UTC

Mar-26@
21:00 UTC

Mar-26 @ 21:00 UTC

TAF SBCR 261500Z 2618/2718 16007KT CAVOK TX35/2618Z TN22/2709Z

Expired

Wind
  • 160° at 7 KTS
Cloud Levels
  • No significant clouds

Mar-26@
18:00 UTC

Mar-26 @ 18:00 UTC

Mar-26@
20:00 UTC

Mar-26 @ 20:00 UTC

TEMPO 2618/2620 9999 FEW035

Expired

Cloud Levels
  • Few at 3,500' AGL

Mar-26@
21:00 UTC

Mar-26 @ 21:00 UTC

Mar-27@
12:00 UTC

Mar-27 @ 12:00 UTC

BECMG 2621/2622 22005KT

Becoming

Becoming Conditions expected by Tue, Mar 26, 2019 @ 22:00 UTC

Wind
  • 220° at 5 KTS
Cloud Levels
  • No significant clouds

Mar-27@
12:00 UTC

Mar-27 @ 12:00 UTC

Mar-27@
18:00 UTC

Mar-27 @ 18:00 UTC

BECMG 2712/2714 16008KT 9999 FEW 035 RMK PDJ

Becoming

Becoming Conditions expected by Wed, Mar 27, 2019 @ 14:00 UTC

Wind
  • 160° at 8 KTS
Cloud Levels
  • Few at 3,500' AGL